createdAt,value
2018-02-14T00:00:42.554Z,98.50
2018-02-14T00:03:10.128Z,99.10
2018-02-14T00:05:37.870Z,98.40
2018-02-14T00:08:05.345Z,98.20
2018-02-14T00:10:32.932Z,98.40
2018-02-14T00:13:00.528Z,97.90
2018-02-14T00:15:28.063Z,97.90
2018-02-14T00:17:55.607Z,98.00
2018-02-14T00:20:23.559Z,97.10
2018-02-14T00:22:51.125Z,97.80
2018-02-14T00:25:18.663Z,97.30
2018-02-14T00:27:46.210Z,97.70
2018-02-14T00:30:13.740Z,97.40
2018-02-14T00:32:41.271Z,97.30
2018-02-14T00:35:08.890Z,97.40
2018-02-14T00:37:36.476Z,97.50
2018-02-14T00:40:04.008Z,97.50
2018-02-14T00:42:31.622Z,96.90
2018-02-14T00:44:59.188Z,96.70
2018-02-14T00:47:27.524Z,96.60
2018-02-14T00:49:55.120Z,96.60
2018-02-14T00:52:22.665Z,96.20
2018-02-14T00:54:50.236Z,96.70
2018-02-14T00:57:18.593Z,96.60
2018-02-14T00:59:46.924Z,96.20
2018-02-14T01:02:14.496Z,96.30
2018-02-14T01:04:42.816Z,95.50
2018-02-14T01:07:10.318Z,95.50
2018-02-14T01:09:38.606Z,95.00
2018-02-14T01:12:06.419Z,95.00
2018-02-14T01:14:33.963Z,95.20
2018-02-14T01:17:01.585Z,95.30
2018-02-14T01:19:36.282Z,95.50
2018-02-14T01:22:03.814Z,95.10
2018-02-14T01:24:31.346Z,96.10
2018-02-14T01:26:58.941Z,96.50
2018-02-14T01:29:27.242Z,95.50
2018-02-14T01:31:54.775Z,95.50
2018-02-14T01:34:22.339Z,95.20
2018-02-14T01:36:49.912Z,95.50
2018-02-14T01:39:17.486Z,95.80
2018-02-14T01:41:45.093Z,95.50
2018-02-14T01:44:12.667Z,95.60
2018-02-14T01:46:40.978Z,96.20
2018-02-14T01:49:08.717Z,96.10
2018-02-14T01:51:36.276Z,95.40
2018-02-14T01:54:03.753Z,95.90
2018-02-14T01:56:31.437Z,95.70
2018-02-14T01:58:59.008Z,96.60
2018-02-14T02:01:26.580Z,96.40
2018-02-14T02:03:54.548Z,97.50
2018-02-14T02:06:22.860Z,97.60
2018-02-14T02:08:50.402Z,97.60
2018-02-14T02:11:17.967Z,97.90
2018-02-14T02:13:45.507Z,98.00
2018-02-14T02:16:13.830Z,98.00
2018-02-14T02:18:41.423Z,98.40
2018-02-14T02:21:09.022Z,98.10
2018-02-14T02:23:36.609Z,97.30
2018-02-14T02:26:04.191Z,96.70
2018-02-14T02:28:32.525Z,97.70
2018-02-14T02:31:00.093Z,97.60
2018-02-14T02:33:28.615Z,97.20
2018-02-14T02:35:56.159Z,97.20
2018-02-14T02:38:23.733Z,97.30
2018-02-14T02:40:52.308Z,95.90
2018-02-14T02:43:20.648Z,96.60
2018-02-14T02:45:48.187Z,96.50
2018-02-14T02:48:15.887Z,97.20
2018-02-14T02:50:43.422Z,96.40
2018-02-14T02:53:10.994Z,96.60
2018-02-14T02:55:38.797Z,96.80
2018-02-14T02:58:07.108Z,97.50
2018-02-14T03:00:34.797Z,97.50
2018-02-14T03:03:03.218Z,98.10
2018-02-14T03:05:30.786Z,98.00
2018-02-14T03:07:58.336Z,98.30
2018-02-14T03:10:25.902Z,98.60
2018-02-14T03:12:54.245Z,99.20
2018-02-14T03:15:21.794Z,99.20
2018-02-14T03:17:49.403Z,99.50
2018-02-14T03:20:16.943Z,99.70
2018-02-14T03:22:44.666Z,99.50
2018-02-14T03:25:12.353Z,99.50
2018-02-14T03:27:39.934Z,99.50
2018-02-14T03:30:08.261Z,99.50
2018-02-14T03:32:35.872Z,99.50
2018-02-14T03:35:03.440Z,99.70
2018-02-14T03:37:30.977Z,99.80
2018-02-14T03:39:58.748Z,99.50
2018-02-14T03:42:26.286Z,99.30
2018-02-14T03:44:53.862Z,99.40
2018-02-14T03:47:22.279Z,98.40
2018-02-14T03:49:49.819Z,98.40
2018-02-14T03:52:17.391Z,98.60
2018-02-14T03:54:45.176Z,98.40
2018-02-14T03:57:13.523Z,98.00
2018-02-14T03:59:41.877Z,97.80
2018-02-14T04:02:09.545Z,97.80
2018-02-14T04:04:37.894Z,98.20
2018-02-14T04:07:06.236Z,97.50
2018-02-14T04:09:33.802Z,97.50
2018-02-14T04:12:02.099Z,96.70
2018-02-14T04:14:29.642Z,96.60
2018-02-14T04:16:57.668Z,96.70
2018-02-14T04:19:26.006Z,96.10
2018-02-14T04:21:53.547Z,96.00
2018-02-14T04:24:21.240Z,96.00
2018-02-14T04:26:48.717Z,96.40
2018-02-14T04:29:16.293Z,96.10
2018-02-14T04:31:43.899Z,95.80
2018-02-14T04:34:12.182Z,95.70
2018-02-14T04:36:39.742Z,95.70
2018-02-14T04:39:08.204Z,95.40
2018-02-14T04:41:35.747Z,95.30
2018-02-14T04:44:03.280Z,96.40
2018-02-14T04:46:31.223Z,97.10
2018-02-14T04:48:58.796Z,97.30
2018-02-14T04:51:27.105Z,97.50
2018-02-14T04:53:54.984Z,97.40
2018-02-14T04:56:22.568Z,96.80
2018-02-14T04:58:50.111Z,96.80
2018-02-14T05:01:17.752Z,96.50
2018-02-14T05:03:46.093Z,96.60
2018-02-14T05:06:13.639Z,96.50
2018-02-14T05:08:41.412Z,97.30
2018-02-14T05:11:08.955Z,97.50
2018-02-14T05:13:36.528Z,97.70
2018-02-14T05:16:04.104Z,96.80
2018-02-14T05:18:31.690Z,96.80
2018-02-14T05:20:59.243Z,96.80
2018-02-14T05:23:27.080Z,97.30
2018-02-14T05:25:54.672Z,96.90
2018-02-14T05:28:22.247Z,97.40
2018-02-14T05:30:49.812Z,97.40
2018-02-14T05:33:18.164Z,97.20
2018-02-14T05:35:46.512Z,96.60
2018-02-14T05:38:14.218Z,96.60
2018-02-14T05:40:41.755Z,96.90
2018-02-14T05:43:09.340Z,97.50
2018-02-14T05:45:36.948Z,97.40
2018-02-14T05:48:04.536Z,97.70
2018-02-14T05:50:32.104Z,98.20
2018-02-14T05:53:00.715Z,98.50
2018-02-14T05:55:28.284Z,98.50
2018-02-14T05:57:55.860Z,98.80
2018-02-14T06:00:23.518Z,98.90
2018-02-14T06:02:51.096Z,98.80
2018-02-14T06:05:18.884Z,99.20
2018-02-14T06:07:47.276Z,98.80
2018-02-14T06:10:14.847Z,98.80
2018-02-14T06:12:42.416Z,98.60
2018-02-14T06:15:10.196Z,98.30
2018-02-14T06:17:38.542Z,97.70
2018-02-14T06:20:06.056Z,98.00
2018-02-14T06:22:33.624Z,97.10
2018-02-14T06:25:01.179Z,97.00
2018-02-14T06:27:28.722Z,97.00
2018-02-14T06:29:57.055Z,96.40
2018-02-14T06:32:24.640Z,96.30
2018-02-14T06:34:52.950Z,96.50
2018-02-14T06:37:20.744Z,96.50
2018-02-14T06:39:49.072Z,96.50
2018-02-14T06:42:16.615Z,96.40
2018-02-14T06:44:44.325Z,96.50
2018-02-14T06:47:11.880Z,96.40
2018-02-14T06:49:39.468Z,96.60
2018-02-14T06:52:07.319Z,96.70
2018-02-14T06:54:34.835Z,96.80
2018-02-14T06:57:02.402Z,97.20
2018-02-14T06:59:30.022Z,96.50
2018-02-14T07:01:57.597Z,96.60
2018-02-14T07:04:25.127Z,96.50
2018-02-14T07:06:52.695Z,96.50
2018-02-14T07:09:21.012Z,96.70
2018-02-14T07:11:48.585Z,96.60
2018-02-14T07:14:16.188Z,96.00
2018-02-14T07:16:43.775Z,95.50
2018-02-14T07:19:11.352Z,95.60
2018-02-14T07:21:39.666Z,96.30
2018-02-14T07:24:07.203Z,96.30
2018-02-14T07:26:34.791Z,96.40
2018-02-14T07:29:03.146Z,96.50
2018-02-14T07:31:31.488Z,95.90
2018-02-14T07:33:59.036Z,95.90
2018-02-14T07:36:26.960Z,96.20
2018-02-14T07:38:54.524Z,96.10
2018-02-14T07:41:22.101Z,96.60
2018-02-14T07:43:50.443Z,95.40
2018-02-14T07:46:17.987Z,95.40
2018-02-14T07:48:45.467Z,93.90
2018-02-14T07:51:13.300Z,93.30
2018-02-14T07:53:41.628Z,94.20
2018-02-14T07:56:09.200Z,94.20
2018-02-14T07:58:37.738Z,94.60
2018-02-14T08:01:06.085Z,93.10
2018-02-14T08:03:33.628Z,93.20
2018-02-14T08:06:01.289Z,93.30
2018-02-14T08:08:28.835Z,94.20
2018-02-14T08:10:56.379Z,94.90
2018-02-14T08:13:23.959Z,93.10
2018-02-14T08:15:52.283Z,92.50
2018-02-14T08:18:19.867Z,92.50
2018-02-14T08:20:48.287Z,91.90
2018-02-14T08:23:15.917Z,91.90
2018-02-14T08:25:43.492Z,91.90
2018-02-14T08:28:11.343Z,91.70
2018-02-14T08:30:38.933Z,90.70
2018-02-14T08:33:06.471Z,90.80
2018-02-14T08:35:34.175Z,90.50
2018-02-14T08:38:01.745Z,90.90
2018-02-14T08:40:30.055Z,90.40
2018-02-14T08:42:58.329Z,90.60
2018-02-14T08:45:25.901Z,90.60
2018-02-14T08:47:54.208Z,90.60
2018-02-14T08:50:21.804Z,90.30
2018-02-14T08:52:49.342Z,89.60
2018-02-14T08:55:16.875Z,90.40
2018-02-14T08:57:44.852Z,91.20
2018-02-14T09:00:13.210Z,91.50
2018-02-14T09:02:40.690Z,91.10
2018-02-14T09:05:08.508Z,91.20
2018-02-14T09:07:36.850Z,90.50
2018-02-14T09:10:04.389Z,90.50
2018-02-14T09:12:31.966Z,89.40
2018-02-14T09:15:00.260Z,90.30
2018-02-14T09:17:27.812Z,90.30
2018-02-14T09:19:55.438Z,90.40
2018-02-14T09:22:23.013Z,90.60
2018-02-14T09:24:50.588Z,90.30
2018-02-14T09:27:18.956Z,90.20
2018-02-14T09:29:47.259Z,90.30
2018-02-14T09:32:14.839Z,90.20
2018-02-14T09:34:42.445Z,91.50
2018-02-14T09:37:10.036Z,90.90
2018-02-14T09:39:37.612Z,90.70
2018-02-14T09:42:05.948Z,89.40
2018-02-14T09:44:33.486Z,89.40
2018-02-14T09:47:01.035Z,88.80
2018-02-14T09:49:28.581Z,89.80
2018-02-14T09:51:56.049Z,90.30
2018-02-14T09:54:24.426Z,89.80
2018-02-14T09:56:52.153Z,89.80
2018-02-14T09:59:20.483Z,90.50
2018-02-14T10:01:48.056Z,90.40
2018-02-14T10:04:15.896Z,90.00
2018-02-14T10:06:43.483Z,90.70
2018-02-14T10:09:11.047Z,90.30
2018-02-14T10:11:38.627Z,90.10
2018-02-14T10:14:06.953Z,89.70
2018-02-14T10:16:34.524Z,89.70
2018-02-14T10:19:02.242Z,89.70
2018-02-14T10:21:29.754Z,89.20
2018-02-14T10:23:57.316Z,91.00
2018-02-14T10:26:24.886Z,89.70
2018-02-14T10:28:52.461Z,89.60
2018-02-14T10:31:20.800Z,90.80
2018-02-14T10:33:48.367Z,90.80
2018-02-14T10:36:16.710Z,90.70
2018-02-14T10:38:44.258Z,90.70
2018-02-14T10:41:11.903Z,90.80
2018-02-14T10:43:39.471Z,92.20
2018-02-14T10:46:07.776Z,92.10
2018-02-14T10:48:35.423Z,92.10
2018-02-14T10:51:03.779Z,91.50
2018-02-14T10:53:31.311Z,91.50
2018-02-14T10:55:58.909Z,91.70
2018-02-14T10:58:26.484Z,90.00
2018-02-14T11:00:59.659Z,91.60
2018-02-14T11:03:32.838Z,90.00
2018-02-14T11:06:06.015Z,90.10
2018-02-14T11:08:33.690Z,90.00
2018-02-14T11:11:01.229Z,90.20
2018-02-14T11:13:28.801Z,90.10
2018-02-14T11:15:56.692Z,90.10
2018-02-14T11:18:24.273Z,86.60
2018-02-14T11:20:51.845Z,87.60
2018-02-14T11:23:19.491Z,88.10
2018-02-14T11:25:47.039Z,87.20
2018-02-14T11:28:14.612Z,87.10
2018-02-14T11:30:42.279Z,86.70
2018-02-14T11:33:09.857Z,87.10
2018-02-14T11:35:37.358Z,87.30
2018-02-14T11:38:04.853Z,85.20
2018-02-14T11:40:32.444Z,83.60
2018-02-14T11:42:59.979Z,83.70
2018-02-14T11:45:27.883Z,83.60
2018-02-14T11:47:55.410Z,81.80
2018-02-14T11:50:22.985Z,82.40
2018-02-14T11:52:50.728Z,80.40
2018-02-14T11:55:18.260Z,78.90
2018-02-14T11:57:46.594Z,78.20
2018-02-14T12:00:14.346Z,78.20
2018-02-14T12:02:41.867Z,79.20
2018-02-14T12:05:09.432Z,77.60
2018-02-14T12:07:37.208Z,76.10
2018-02-14T12:10:04.755Z,77.20
2018-02-14T12:12:32.279Z,73.80
2018-02-14T12:15:00.051Z,72.00
2018-02-14T12:17:27.590Z,73.40
2018-02-14T12:19:55.161Z,68.70
2018-02-14T12:22:23.521Z,67.90
2018-02-14T12:24:51.860Z,66.80
2018-02-14T12:27:19.395Z,66.70
2018-02-14T12:29:46.996Z,64.90
2018-02-14T12:32:14.748Z,66.70
2018-02-14T12:34:42.298Z,66.60
2018-02-14T12:37:10.088Z,67.60
2018-02-14T12:39:37.668Z,67.50
2018-02-14T12:42:05.966Z,67.00
2018-02-14T12:44:33.843Z,67.00
2018-02-14T12:47:01.420Z,67.00
2018-02-14T12:49:28.967Z,67.10
2018-02-14T12:51:57.296Z,62.90
2018-02-14T12:54:24.834Z,62.60
2018-02-14T12:56:52.401Z,62.50
2018-02-14T12:59:20.774Z,62.10
2018-02-14T13:01:49.118Z,61.80
2018-02-14T13:04:16.593Z,61.70
2018-02-14T13:06:44.343Z,61.40
2018-02-14T13:09:11.856Z,62.50
2018-02-14T13:11:39.391Z,64.60
2018-02-14T13:14:06.996Z,66.30
2018-02-14T13:16:34.564Z,67.00
2018-02-14T13:19:02.107Z,67.20
2018-02-14T13:21:29.679Z,70.30
2018-02-14T13:23:58.024Z,74.60
2018-02-14T13:26:25.567Z,73.70
2018-02-14T13:28:53.176Z,71.40
2018-02-14T13:31:20.720Z,72.00
2018-02-14T13:33:48.301Z,71.90
2018-02-14T13:36:15.859Z,71.80
2018-02-14T13:38:43.433Z,73.10
2018-02-14T13:41:10.971Z,71.00
2018-02-14T13:43:38.580Z,71.10
2018-02-14T13:46:06.114Z,71.90
2018-02-14T13:48:34.419Z,73.00
2018-02-14T13:51:02.022Z,72.90
2018-02-14T13:53:30.358Z,70.50
2018-02-14T13:55:57.891Z,70.40
2018-02-14T13:58:25.576Z,69.90
2018-02-14T14:00:53.916Z,71.30
2018-02-14T14:03:21.467Z,71.30
2018-02-14T14:05:49.925Z,71.00
2018-02-14T14:08:17.452Z,71.00
2018-02-14T14:10:45.025Z,69.80
2018-02-14T14:13:13.404Z,70.40
2018-02-14T14:15:40.966Z,70.30
2018-02-14T14:18:08.507Z,69.90
2018-02-14T14:20:36.083Z,69.20
2018-02-14T14:23:03.649Z,69.50
2018-02-14T14:25:31.180Z,69.40
2018-02-14T14:27:58.755Z,68.00
2018-02-14T14:30:26.315Z,68.50
2018-02-14T14:32:53.848Z,67.40
2018-02-14T14:35:22.171Z,68.50
2018-02-14T14:37:49.696Z,68.40
2018-02-14T14:40:17.211Z,67.30
2018-02-14T14:42:45.149Z,65.50
2018-02-14T14:45:13.484Z,65.70
2018-02-14T14:47:40.990Z,65.70
2018-02-14T14:50:08.676Z,65.00
2018-02-14T14:52:36.160Z,66.30
2018-02-14T14:55:03.696Z,64.20
2018-02-14T14:57:31.268Z,61.70
2018-02-14T14:59:58.798Z,63.30
2018-02-14T15:02:26.340Z,60.70
2018-02-14T15:04:53.995Z,60.20
2018-02-14T15:07:21.576Z,60.40
2018-02-14T15:09:49.374Z,59.50
2018-02-14T15:12:16.910Z,60.20
2018-02-14T15:14:45.203Z,60.50
2018-02-14T15:17:12.778Z,60.30
2018-02-14T15:19:40.380Z,59.00
2018-02-14T15:22:08.812Z,57.20
2018-02-14T15:24:36.343Z,56.10
2018-02-14T15:27:04.237Z,56.10
2018-02-14T15:29:32.571Z,56.90
2018-02-14T15:32:00.107Z,56.90
2018-02-14T15:34:28.075Z,55.50
2018-02-14T15:36:56.420Z,54.10
2018-02-14T15:39:24.068Z,54.00
2018-02-14T15:41:51.696Z,53.20
2018-02-14T15:44:19.267Z,52.90
2018-02-14T15:46:46.849Z,53.30
2018-02-14T15:49:14.504Z,53.90
2018-02-14T15:51:42.035Z,53.10
2018-02-14T15:54:09.641Z,52.40
2018-02-14T15:56:37.250Z,53.30
2018-02-14T15:59:04.855Z,53.50
2018-02-14T16:01:32.429Z,53.50
2018-02-14T16:04:00.009Z,53.80
2018-02-14T16:06:27.547Z,54.80
2018-02-14T16:08:55.321Z,54.60
2018-02-14T16:11:22.887Z,55.20
2018-02-14T16:13:51.198Z,55.70
2018-02-14T16:16:18.735Z,55.70
2018-02-14T16:18:46.415Z,56.30
2018-02-14T16:21:13.990Z,57.10
2018-02-14T16:23:42.300Z,59.10
2018-02-14T16:26:09.870Z,59.10
2018-02-14T16:28:37.404Z,60.80
2018-02-14T16:31:04.938Z,62.20
2018-02-14T16:33:32.514Z,64.20
2018-02-14T16:36:00.828Z,69.30
2018-02-14T16:38:28.379Z,69.20
2018-02-14T16:40:55.989Z,71.50
2018-02-14T16:43:23.574Z,73.60
2018-02-14T16:45:51.912Z,76.10
2018-02-14T16:48:19.512Z,76.10
2018-02-14T16:50:46.990Z,77.50
2018-02-14T16:53:15.321Z,79.80
2018-02-14T16:55:42.903Z,79.80
2018-02-14T16:58:10.443Z,80.90
2018-02-14T17:00:37.971Z,81.50
2018-02-14T17:03:05.532Z,82.10
2018-02-14T17:05:33.115Z,82.70
2018-02-14T17:08:00.716Z,83.60
2018-02-14T17:10:28.321Z,83.20
2018-02-14T17:12:55.892Z,80.90
2018-02-14T17:15:23.440Z,83.40
2018-02-14T17:17:51.007Z,83.40
2018-02-14T17:20:19.343Z,83.50
2018-02-14T17:22:46.893Z,83.50
2018-02-14T17:25:14.547Z,82.70
2018-02-14T17:27:42.092Z,80.90
2018-02-14T17:30:10.440Z,82.50
2018-02-14T17:32:38.425Z,82.50
2018-02-14T17:35:05.975Z,80.40
2018-02-14T17:37:33.511Z,80.50
2018-02-14T17:40:02.039Z,82.50
2018-02-14T17:42:29.579Z,82.40
2018-02-14T17:44:57.111Z,82.30
2018-02-14T17:47:24.867Z,81.90
2018-02-14T17:49:52.399Z,82.30
2018-02-14T17:52:19.969Z,83.00
2018-02-14T17:54:47.485Z,83.60
2018-02-14T17:57:14.990Z,83.50
2018-02-14T17:59:43.292Z,85.30
2018-02-14T18:02:10.887Z,85.30
2018-02-14T18:04:39.228Z,86.00
2018-02-14T18:07:06.800Z,85.90
2018-02-14T18:09:35.456Z,84.70
2018-02-14T18:12:03.804Z,86.00
2018-02-14T18:14:31.385Z,86.10
2018-02-14T18:16:59.021Z,84.30
2018-02-14T18:19:26.608Z,83.00
2018-02-14T18:21:54.156Z,82.00
2018-02-14T18:24:21.816Z,79.20
2018-02-14T18:26:49.360Z,77.50
2018-02-14T18:29:16.931Z,78.50
2018-02-14T18:31:45.412Z,78.90
2018-02-14T18:34:12.998Z,79.00
2018-02-14T18:36:40.539Z,78.90
2018-02-14T18:39:08.109Z,77.60
2018-02-14T18:41:35.680Z,79.30
2018-02-14T18:44:03.992Z,79.60
2018-02-14T18:46:31.620Z,79.50
2018-02-14T18:48:59.217Z,80.80
2018-02-14T18:51:27.510Z,79.80
2018-02-14T18:53:55.164Z,80.00
2018-02-14T18:56:22.745Z,80.30
2018-02-14T18:58:50.430Z,79.50
2018-02-14T19:01:18.339Z,79.30
2018-02-14T19:03:45.887Z,76.80
2018-02-14T19:06:14.142Z,72.70
2018-02-14T19:08:42.040Z,73.30
2018-02-14T19:11:10.386Z,73.60
2018-02-14T19:13:38.697Z,74.90
2018-02-14T19:16:06.352Z,74.80
2018-02-14T19:18:33.857Z,75.60
2018-02-14T19:21:02.159Z,75.60
2018-02-14T19:23:29.861Z,75.50
2018-02-14T19:25:57.407Z,76.70
2018-02-14T19:28:24.997Z,80.30
2018-02-14T19:30:52.568Z,82.10
2018-02-14T19:33:20.146Z,83.90
2018-02-14T19:35:47.629Z,84.30
2018-02-14T19:38:15.316Z,85.30
2018-02-14T19:40:43.760Z,85.10
2018-02-14T19:43:11.296Z,85.10
2018-02-14T19:45:39.248Z,85.10
2018-02-14T19:48:06.732Z,85.60
2018-02-14T19:50:35.072Z,83.20
2018-02-14T19:53:02.643Z,83.30
2018-02-14T19:55:30.225Z,82.70
2018-02-14T19:57:57.806Z,83.60
2018-02-14T20:00:26.392Z,85.30
2018-02-14T20:02:54.736Z,85.60
2018-02-14T20:05:22.210Z,85.60
2018-02-14T20:07:49.805Z,87.10
2018-02-14T20:10:17.384Z,87.10
2018-02-14T20:12:45.728Z,90.10
2018-02-14T20:15:13.339Z,90.10
2018-02-14T20:17:40.916Z,89.50
2018-02-14T20:20:08.457Z,88.90
2018-02-14T20:22:36.060Z,88.50
2018-02-14T20:25:03.615Z,87.30
2018-02-14T20:27:31.159Z,87.90
2018-02-14T20:29:58.957Z,89.60
2018-02-14T20:32:27.287Z,90.40
2018-02-14T20:34:54.868Z,90.30
2018-02-14T20:37:22.451Z,90.10
2018-02-14T20:39:49.999Z,88.00
2018-02-14T20:42:17.552Z,86.30
2018-02-14T20:44:45.167Z,86.30
2018-02-14T20:47:12.768Z,84.70
2018-02-14T20:49:40.246Z,86.00
2018-02-14T20:52:08.099Z,85.00
2018-02-14T20:54:35.619Z,86.40
2018-02-14T20:57:03.987Z,85.50
2018-02-14T20:59:32.519Z,83.10
2018-02-14T21:02:00.096Z,83.10
2018-02-14T21:04:28.405Z,82.40
2018-02-14T21:06:56.053Z,82.40
2018-02-14T21:09:23.604Z,84.70
2018-02-14T21:11:51.147Z,84.50
2018-02-14T21:14:18.909Z,84.20
2018-02-14T21:16:46.500Z,83.50
2018-02-14T21:19:14.077Z,84.20
2018-02-14T21:21:42.435Z,83.00
2018-02-14T21:24:09.960Z,83.00
2018-02-14T21:26:38.238Z,84.40
2018-02-14T21:29:06.047Z,84.30
2018-02-14T21:31:34.392Z,86.00
2018-02-14T21:34:01.935Z,85.90
2018-02-14T21:36:30.272Z,87.20
2018-02-14T21:38:57.857Z,86.90
2018-02-14T21:41:26.200Z,88.20
2018-02-14T21:43:53.779Z,88.20
2018-02-14T21:46:21.257Z,88.10
2018-02-14T21:48:48.778Z,89.40
2018-02-14T21:51:16.464Z,90.00
2018-02-14T21:53:44.004Z,89.60
2018-02-14T21:56:11.588Z,90.00
2018-02-14T21:58:39.166Z,90.10
2018-02-14T22:01:06.704Z,90.40
2018-02-14T22:03:34.252Z,90.50
2018-02-14T22:06:02.108Z,90.70
2018-02-14T22:08:29.652Z,90.90
2018-02-14T22:10:57.218Z,91.40
2018-02-14T22:13:24.906Z,91.30
2018-02-14T22:15:53.211Z,91.80
2018-02-14T22:18:20.800Z,91.80
2018-02-14T22:20:49.150Z,91.30
2018-02-14T22:23:16.687Z,91.20
2018-02-14T22:25:44.269Z,90.90
2018-02-14T22:28:11.880Z,91.10
2018-02-14T22:30:39.423Z,91.10
2018-02-14T22:33:07.004Z,92.10
2018-02-14T22:35:34.832Z,92.90
2018-02-14T22:38:02.387Z,93.30
2018-02-14T22:40:29.965Z,92.80
2018-02-14T22:42:57.514Z,93.80
2018-02-14T22:45:25.336Z,94.50
2018-02-14T22:47:52.922Z,95.00
2018-02-14T22:50:20.525Z,95.00
2018-02-14T22:52:48.067Z,94.70
2018-02-14T22:55:15.647Z,94.50
2018-02-14T22:57:43.323Z,94.70
2018-02-14T23:00:10.854Z,95.00
2018-02-14T23:02:38.379Z,95.30
2018-02-14T23:05:06.831Z,95.40
2018-02-14T23:07:34.382Z,95.40
2018-02-14T23:10:01.961Z,95.40
2018-02-14T23:12:29.667Z,95.50
2018-02-14T23:14:57.202Z,95.50
2018-02-14T23:17:24.785Z,95.10
2018-02-14T23:19:52.383Z,95.10
2018-02-14T23:22:19.963Z,95.30
2018-02-14T23:24:47.553Z,95.00
2018-02-14T23:27:16.080Z,94.50
2018-02-14T23:29:43.623Z,94.50
2018-02-14T23:32:11.180Z,94.30
2018-02-14T23:34:38.957Z,94.30
2018-02-14T23:37:07.258Z,94.50
2018-02-14T23:39:34.832Z,94.50
2018-02-14T23:42:02.487Z,94.70
2018-02-14T23:44:30.027Z,94.80
2018-02-14T23:46:57.621Z,95.10
2018-02-14T23:49:26.240Z,95.40
2018-02-14T23:51:53.717Z,94.80
2018-02-14T23:54:21.299Z,94.80
2018-02-14T23:56:49.093Z,94.20
2018-02-14T23:59:17.430Z,94.60
